HEMM

Mersa Matruh Airport

Mersa Matruh, Egypt
METAR HEMM 222100Z 31005KT 9999 FEW020 18/13 Q1020 NOSIG
Observed Flight Rules
Apr-22 @ 21:00 UTC (40 minutes ago) Visual Flight Rules
Wind Visibility Clouds
310° at 5 knots 10,000+ meters
  • Few at 2,000' AGL
Temperatures Readings
Current 18°C / 64°F
Dewpoint 13°C / 55°F
Humidity 73%
Altimeter 30.12" Hg
Pressure 1020 hPa
Elevation 30
METAR HEMM 222100Z 31005KT 9999 FEW020 18/13 Q1020 NOSIG
Observed Flight Rules
Apr-22 @ 21:00 UTC
(40 minutes ago)
VFR
Wind Visibility
310° at 5 knots 10,000+ meters
Clouds
  • Few at 2,000' AGL
Temperature Dewpoint
18°C / 64°F 13°C / 55°F
Humidity Altimeter Pressure
73% 30.12" Hg 1020 hPa